Amazonia, Missouri
Current Conditions -  °F | °C
As of 1:53 AM on Sunday 21 Dec 2014 (Local Time) from KSTJ Reporting Station
Haze Haze  
Wind Chill: 27°   Ceiling: Unl
Heat Index: 33°   Visibility: 6mi
Dew Point: 31°   Wind: 7mph
Humidity: 92%   Direction: 160°SSE
Pressure: 30.09"   Gusts: NA
Location:  39.89°N, 94.89°W
Report Text: KSTJ 210753Z AUTO 16006KT 6SM BR CLR 01/M01 A3009 RMK AO2 SLP194 T00061006
Loading
Personal Weather Stations






























Interactive Weather Map New forecast layout! Learn more

10-Day Weather Forecast

Advertisements
Track Severe Weather on mobile